Time;durP1;ratioP1;P1;durP2;ratioP2;P2;SDS_P1;SDS_P2;PMS_P1;PMS_P2;Temp;Humidity;BMP_temperature;BMP_pressure;BME280_temperature;BME280_humidity;BME280_pressure;Samples;Min_cycle;Max_cycle;Signal;HPM_P1;HPM_P2
2021/12/16 00:07:08;;;;;;;;;;;8.40;99.90;;;;;;5136200;27;19922;-70
2021/12/16 00:09:44;;;;;;;;;;;8.40;99.90;;;;;;5136881;27;19998;-70
2021/12/16 00:29:05;;;;;;;;;;;8.40;99.90;;;;;;5136207;27;19923;-70
2021/12/16 00:31:27;;;;;;;;;;;8.50;99.90;;;;;;5136235;27;19915;-70
2021/12/16 00:34:03;;;;;;;;;;;8.60;99.90;;;;;;5137708;27;20015;-70
2021/12/16 00:36:34;;;;;;;;;;;8.50;99.90;;;;;;5135863;27;19919;-71
2021/12/16 00:39:02;;;;;;;;;;;8.50;99.90;;;;;;5136565;27;19915;-71
2021/12/16 00:41:27;;;;;;;;;;;8.50;99.90;;;;;;5135927;27;20359;-70
2021/12/16 00:44:01;;;;;;;;;;;8.50;99.90;;;;;;5137215;27;19954;-70
2021/12/16 00:49:21;;;;;;;;;;;8.50;99.90;;;;;;5137151;27;20364;-70
2021/12/16 00:54:32;;;;;;;;;;;8.60;99.90;;;;;;5135686;27;20009;-71
2021/12/16 00:57:04;;;;;;;;;;;8.60;99.90;;;;;;5136884;27;19919;-71
2021/12/16 00:59:34;;;;;;;;;;;8.60;99.90;;;;;;5136788;27;19998;-70
2021/12/16 01:07:59;;;;;;;;;;;8.60;99.90;;;;;;5136329;27;19915;-71
2021/12/16 01:35:40;;;;;;;;;;;8.70;99.90;;;;;;5135705;27;19919;-71
2021/12/16 01:52:08;;;;;;;;;;;8.70;99.90;;;;;;5136213;27;19915;-70
2021/12/16 01:59:36;;;;;;;;;;;8.70;99.90;;;;;;5134593;27;20361;-70
2021/12/16 02:02:15;;;;;;;;;;;8.70;99.90;;;;;;5134929;27;19979;-70
2021/12/16 02:05:05;;;;;;;;;;;8.70;99.90;;;;;;5135799;27;19926;-71
2021/12/16 02:07:52;;;;;;;;;;;8.70;99.90;;;;;;5133731;27;19922;-70
2021/12/16 02:10:16;;;;;;;;;;;8.70;99.90;;;;;;5134347;27;20304;-70
2021/12/16 02:12:55;;;;;;;;;;;8.70;99.90;;;;;;5135561;27;19919;-71
2021/12/16 02:29:26;;;;;;;;;;;8.70;99.90;;;;;;5133840;27;19998;-70
2021/12/16 02:32:31;;;;;;;;;;;8.70;99.90;;;;;;5135428;27;20010;-70
2021/12/16 02:37:23;;;;;;;;;;;8.70;99.90;;;;;;5133624;27;19915;-71
2021/12/16 02:39:49;;;;;;;;;;;8.70;99.90;;;;;;5135015;27;19966;-70
2021/12/16 02:42:20;;;;;;;;;;;8.70;99.90;;;;;;5133827;27;19923;-71
2021/12/16 02:50:11;;;;;;;;;;;8.70;99.90;;;;;;5133954;27;19953;-71
2021/12/16 02:52:37;;;;;;;;;;;8.70;99.90;;;;;;5134810;27;19919;-71
2021/12/16 02:55:03;;;;;;;;;;;8.70;99.90;;;;;;5134955;27;19963;-70
2021/12/16 02:57:28;;;;;;;;;;;8.70;99.90;;;;;;5133553;27;20292;-71
2021/12/16 02:59:54;;;;;;;;;;;8.60;99.90;;;;;;5135025;27;19930;-71
2021/12/16 03:02:22;;;;;;;;;;;8.60;99.90;;;;;;5134797;27;19922;-70
2021/12/16 03:04:49;;;;;;;;;;;8.50;99.90;;;;;;5134676;27;19916;-71
2021/12/16 03:07:15;;;;;;;;;;;8.60;99.90;;;;;;5133053;27;19923;-71
2021/12/16 03:15:14;;;;;;;;;;;8.50;99.90;;;;;;5133472;28;19922;-71
2021/12/16 03:17:54;;;;;;;;;;;8.50;99.90;;;;;;5133355;28;20269;-71
2021/12/16 03:20:57;;;;;;;;;;;8.50;99.90;;;;;;5134742;27;19919;-71
2021/12/16 03:23:27;;;;;;;;;;;8.50;99.90;;;;;;5132685;28;19969;-71
2021/12/16 03:33:55;;;;;;;;;;;8.50;99.90;;;;;;5092168;28;19915;-71
2021/12/16 03:38:51;;;;;;;;;;;8.40;99.90;;;;;;5134508;27;20453;-71
2021/12/16 03:41:17;;;;;;;;;;;8.40;99.90;;;;;;5115854;28;19998;-71
2021/12/16 03:43:43;;;;;;;;;;;8.40;99.90;;;;;;5133073;27;20344;-71
2021/12/16 03:48:47;;;;;;;;;;;8.40;99.90;;;;;;5133456;27;20372;-71
2021/12/16 03:51:15;;;;;;;;;;;8.30;99.90;;;;;;5134826;27;20241;-71
2021/12/16 03:53:43;;;;;;;;;;;8.30;99.90;;;;;;5134301;27;19915;-71
2021/12/16 03:56:09;;;;;;;;;;;8.30;99.90;;;;;;5132642;27;20296;-71
2021/12/16 03:58:34;;;;;;;;;;;8.30;99.90;;;;;;5134326;27;19926;-70
2021/12/16 04:01:03;;;;;;;;;;;8.30;99.90;;;;;;5132764;27;19919;-70
2021/12/16 04:03:28;;;;;;;;;;;8.30;99.90;;;;;;5134227;27;19968;-71
2021/12/16 04:05:54;;;;;;;;;;;8.30;99.90;;;;;;5134204;27;19919;-71
2021/12/16 04:08:19;;;;;;;;;;;8.20;99.90;;;;;;5137135;27;20013;-71
2021/12/16 04:11:07;;;;;;;;;;;8.30;99.90;;;;;;5138028;27;19915;-71
2021/12/16 04:13:40;;;;;;;;;;;8.20;99.90;;;;;;5137677;27;20360;-71
2021/12/16 04:16:06;;;;;;;;;;;8.20;99.90;;;;;;5136149;27;19940;-71
2021/12/16 04:18:32;;;;;;;;;;;8.10;99.90;;;;;;5137833;27;19919;-71
2021/12/16 04:20:58;;;;;;;;;;;8.10;99.90;;;;;;5136642;27;19919;-71
2021/12/16 04:23:23;;;;;;;;;;;8.10;99.90;;;;;;5136678;27;20299;-71
2021/12/16 04:25:49;;;;;;;;;;;8.00;99.90;;;;;;5137112;27;19915;-71
2021/12/16 04:28:23;;;;;;;;;;;8.00;99.90;;;;;;5136099;27;20368;-71
2021/12/16 04:30:48;;;;;;;;;;;8.00;99.90;;;;;;5137577;27;20363;-71
2021/12/16 04:33:14;;;;;;;;;;;8.00;99.90;;;;;;5136320;27;19915;-71
2021/12/16 04:35:40;;;;;;;;;;;7.90;99.90;;;;;;5135921;27;19915;-71
2021/12/16 04:38:10;;;;;;;;;;;8.00;99.90;;;;;;5135835;27;19923;-71
2021/12/16 04:40:36;;;;;;;;;;;8.10;99.90;;;;;;5137263;27;20013;-71
2021/12/16 04:43:03;;;;;;;;;;;8.00;99.90;;;;;;5137200;27;20388;-71
2021/12/16 04:45:30;;;;;;;;;;;8.00;99.90;;;;;;5136951;27;19999;-71
2021/12/16 04:47:58;;;;;;;;;;;8.00;99.90;;;;;;5137425;27;19915;-70
2021/12/16 04:50:23;;;;;;;;;;;8.00;99.90;;;;;;5137093;27;19922;-70
2021/12/16 04:52:49;;;;;;;;;;;8.00;99.90;;;;;;5136966;27;19915;-70
2021/12/16 04:55:15;;;;;;;;;;;8.00;99.90;;;;;;5137057;27;20334;-70
2021/12/16 04:57:41;;;;;;;;;;;7.90;99.90;;;;;;5135565;27;20380;-70
2021/12/16 05:00:08;;;;;;;;;;;7.90;99.90;;;;;;5136369;27;19940;-70
2021/12/16 05:02:34;;;;;;;;;;;7.90;99.90;;;;;;5135790;27;19923;-70
2021/12/16 05:04:59;;;;;;;;;;;7.90;99.90;;;;;;5135409;27;19915;-70
2021/12/16 05:07:25;;;;;;;;;;;7.90;99.90;;;;;;5135458;27;20406;-70
2021/12/16 05:12:18;;;;;;;;;;;7.80;99.90;;;;;;5136776;27;19976;-70
2021/12/16 05:14:44;;;;;;;;;;;7.70;99.90;;;;;;5136778;27;20371;-70
2021/12/16 05:17:23;;;;;;;;;;;7.70;99.90;;;;;;5135025;27;20006;-70
2021/12/16 05:19:51;;;;;;;;;;;7.70;99.90;;;;;;5136107;27;19977;-70
2021/12/16 05:25:01;;;;;;;;;;;7.60;99.90;;;;;;5136435;27;19915;-70
2021/12/16 05:27:27;;;;;;;;;;;7.60;99.90;;;;;;5135977;27;20280;-70
2021/12/16 05:29:52;;;;;;;;;;;7.60;99.90;;;;;;5136536;27;19922;-70
2021/12/16 05:32:18;;;;;;;;;;;7.60;99.90;;;;;;5135410;27;19916;-70
2021/12/16 05:34:43;;;;;;;;;;;7.60;99.90;;;;;;5136112;27;19960;-70
2021/12/16 05:37:09;;;;;;;;;;;7.60;99.90;;;;;;5134577;27;20406;-70
2021/12/16 05:39:35;;;;;;;;;;;7.60;99.90;;;;;;5136195;27;19920;-70
2021/12/16 05:42:00;;;;;;;;;;;7.60;99.90;;;;;;5136128;27;19916;-70
2021/12/16 05:44:26;;;;;;;;;;;7.70;99.90;;;;;;5135042;27;19915;-70
2021/12/16 05:46:52;;;;;;;;;;;7.70;99.90;;;;;;5135582;27;19962;-70
2021/12/16 05:49:18;;;;;;;;;;;7.70;99.90;;;;;;5134874;27;19922;-70
2021/12/16 05:51:45;;;;;;;;;;;7.70;99.90;;;;;;5136137;27;19919;-70
2021/12/16 05:54:11;;;;;;;;;;;7.70;99.90;;;;;;5135775;27;19916;-71
2021/12/16 05:56:37;;;;;;;;;;;7.70;99.90;;;;;;5134276;27;19915;-71
2021/12/16 05:59:04;;;;;;;;;;;7.70;99.90;;;;;;5134750;27;19915;-71
2021/12/16 06:01:31;;;;;;;;;;;7.70;99.90;;;;;;5135689;27;19961;-71
2021/12/16 06:03:58;;;;;;;;;;;7.70;99.90;;;;;;5134289;27;20398;-71
2021/12/16 06:06:23;;;;;;;;;;;7.70;99.90;;;;;;5134280;27;20409;-70
2021/12/16 06:08:51;;;;;;;;;;;7.70;99.90;;;;;;5135829;27;19915;-71
2021/12/16 06:11:21;;;;;;;;;;;7.70;99.90;;;;;;5135347;27;19915;-71
2021/12/16 06:13:58;;;;;;;;;;;7.70;99.90;;;;;;5135404;27;19915;-71
2021/12/16 06:27:23;;;;;;;;;;;7.50;99.90;;;;;;5134796;27;19919;-71
2021/12/16 06:29:49;;;;;;;;;;;7.50;99.90;;;;;;5134992;27;19919;-70
2021/12/16 06:32:15;;;;;;;;;;;7.50;99.90;;;;;;5134032;27;20017;-70
2021/12/16 06:34:41;;;;;;;;;;;7.40;99.90;;;;;;5135193;27;20017;-70
2021/12/16 06:37:07;;;;;;;;;;;7.40;99.90;;;;;;5133342;27;19915;-71
2021/12/16 06:39:33;;;;;;;;;;;7.50;99.90;;;;;;5135066;27;19920;-71
2021/12/16 06:41:58;;;;;;;;;;;7.50;99.90;;;;;;5135253;27;19922;-71
2021/12/16 06:44:32;;;;;;;;;;;7.40;99.90;;;;;;5135027;27;19916;-71
2021/12/16 06:47:06;;;;;;;;;;;7.50;99.90;;;;;;5134517;27;19925;-71
2021/12/16 06:49:34;;;;;;;;;;;7.50;99.90;;;;;;5133866;27;19922;-71
2021/12/16 06:52:03;;;;;;;;;;;7.50;99.90;;;;;;5134788;27;19976;-71
2021/12/16 06:55:18;;;;;;;;;;;7.50;99.90;;;;;;5134943;27;19915;-71
2021/12/16 06:57:24;;;;;;;;;;;7.50;99.90;;;;;;5122320;27;20288;-70
2021/12/16 07:00:06;;;;;;;;;;;7.50;99.90;;;;;;5134656;27;19931;-71
2021/12/16 07:05:00;;;;;;;;;;;7.50;99.90;;;;;;5133659;28;19951;-71
2021/12/16 07:07:26;;;;;;;;;;;7.50;99.90;;;;;;5134489;27;19946;-71
2021/12/16 07:09:51;;;;;;;;;;;7.50;99.90;;;;;;5134762;28;19915;-71
2021/12/16 07:12:24;;;;;;;;;;;7.50;99.90;;;;;;5133019;27;19915;-71
2021/12/16 07:14:50;;;;;;;;;;;7.50;99.90;;;;;;5133400;27;20385;-71
2021/12/16 07:17:16;;;;;;;;;;;7.50;99.90;;;;;;5134253;28;19916;-71
2021/12/16 07:19:43;;;;;;;;;;;7.50;99.90;;;;;;5134680;27;20407;-71
2021/12/16 07:22:09;;;;;;;;;;;7.50;99.90;;;;;;5134489;27;19915;-71
2021/12/16 07:24:35;;;;;;;;;;;7.50;99.90;;;;;;5134510;27;19919;-71
2021/12/16 07:27:01;;;;;;;;;;;7.50;99.90;;;;;;5133971;27;19922;-71
2021/12/16 07:29:27;;;;;;;;;;;7.50;99.90;;;;;;5133443;28;19921;-71
2021/12/16 07:31:53;;;;;;;;;;;7.50;99.90;;;;;;5134485;27;19922;-71
2021/12/16 07:34:19;;;;;;;;;;;7.50;99.90;;;;;;5134852;27;19915;-71
2021/12/16 07:36:45;;;;;;;;;;;7.50;99.90;;;;;;5132624;27;19919;-70
2021/12/16 07:39:12;;;;;;;;;;;7.50;99.90;;;;;;5134609;27;20354;-71
2021/12/16 07:41:40;;;;;;;;;;;7.50;99.90;;;;;;5133683;27;19919;-71
2021/12/16 07:44:10;;;;;;;;;;;7.50;99.90;;;;;;5138551;27;20443;-71
2021/12/16 07:46:46;;;;;;;;;;;7.60;99.90;;;;;;5138081;27;19964;-71
2021/12/16 07:49:14;;;;;;;;;;;7.50;99.90;;;;;;5138673;27;19985;-71
2021/12/16 07:51:41;;;;;;;;;;;7.60;99.90;;;;;;5136945;27;19995;-71
2021/12/16 07:54:07;;;;;;;;;;;7.60;99.90;;;;;;5138150;27;19923;-70
2021/12/16 07:56:33;;;;;;;;;;;7.60;99.90;;;;;;5137644;27;19915;-71
2021/12/16 07:58:58;;;;;;;;;;;7.60;99.90;;;;;;5131968;27;19923;-70
2021/12/16 08:01:24;;;;;;;;;;;7.60;99.90;;;;;;5128485;27;20001;-71
2021/12/16 08:03:50;;;;;;;;;;;7.70;99.90;;;;;;5125640;27;19922;-71
2021/12/16 08:06:21;;;;;;;;;;;7.70;99.90;;;;;;5124851;27;19916;-71
2021/12/16 08:08:47;;;;;;;;;;;7.70;99.90;;;;;;5107840;27;20312;-71
2021/12/16 08:11:13;;;;;;;;;;;7.70;99.90;;;;;;5128974;27;19915;-71
2021/12/16 08:13:39;;;;;;;;;;;7.70;99.90;;;;;;5117507;27;20270;-71
2021/12/16 08:16:05;;;;;;;;;;;7.80;99.90;;;;;;5098496;28;20377;-71
2021/12/16 08:18:31;;;;;;;;;;;7.70;99.90;;;;;;5115809;28;19930;-70
2021/12/16 08:20:57;;;;;;;;;;;7.80;99.90;;;;;;5117312;28;19926;-70
2021/12/16 08:23:23;;;;;;;;;;;7.80;99.90;;;;;;5115718;28;20002;-69
2021/12/16 08:25:49;;;;;;;;;;;7.80;99.90;;;;;;5115825;28;19915;-70
2021/12/16 08:28:14;;;;;;;;;;;7.80;99.90;;;;;;5116290;27;19915;-70
2021/12/16 08:30:41;;;;;;;;;;;7.80;99.90;;;;;;5117193;28;20281;-70
2021/12/16 08:33:10;;;;;;;;;;;7.80;99.90;;;;;;5117036;28;19915;-70
2021/12/16 08:35:37;;;;;;;;;;;7.80;99.90;;;;;;5116725;27;19920;-70
2021/12/16 08:38:03;;;;;;;;;;;7.80;99.90;;;;;;5116736;28;19923;-70
2021/12/16 08:40:28;;;;;;;;;;;7.80;99.90;;;;;;5116639;28;19924;-70
2021/12/16 08:42:54;;;;;;;;;;;7.90;99.90;;;;;;5116905;28;19925;-70
2021/12/16 08:45:23;;;;;;;;;;;7.90;99.90;;;;;;5115681;28;19930;-70
2021/12/16 08:47:49;;;;;;;;;;;7.90;99.90;;;;;;5116202;28;19915;-70
2021/12/16 08:50:16;;;;;;;;;;;7.90;99.90;;;;;;5116489;27;19920;-70
2021/12/16 08:52:42;;;;;;;;;;;7.90;99.90;;;;;;5116896;28;19916;-70
2021/12/16 08:55:08;;;;;;;;;;;8.00;99.90;;;;;;5116415;28;19965;-70
2021/12/16 08:57:34;;;;;;;;;;;8.00;99.90;;;;;;5114672;28;19915;-70
2021/12/16 08:59:59;;;;;;;;;;;8.00;99.90;;;;;;5116211;28;19926;-70
2021/12/16 09:02:25;;;;;;;;;;;8.00;99.90;;;;;;5115251;28;19926;-70
2021/12/16 09:04:51;;;;;;;;;;;8.00;99.90;;;;;;5115405;28;19960;-70
2021/12/16 09:07:16;;;;;;;;;;;8.10;99.90;;;;;;5115782;28;19968;-70
2021/12/16 09:09:44;;;;;;;;;;;8.10;99.90;;;;;;5135313;27;19915;-70
2021/12/16 09:12:15;;;;;;;;;;;8.10;99.90;;;;;;5136738;27;19915;-70
2021/12/16 09:14:41;;;;;;;;;;;8.10;99.90;;;;;;5135651;27;19962;-70
2021/12/16 09:17:10;;;;;;;;;;;8.10;99.90;;;;;;5134896;27;19922;-70
2021/12/16 09:19:47;;;;;;;;;;;8.10;99.90;;;;;;5135407;27;20372;-70
2021/12/16 09:22:15;;;;;;;;;;;8.10;99.90;;;;;;5135412;27;19994;-70
2021/12/16 09:24:42;;;;;;;;;;;8.10;99.90;;;;;;5136709;27;19915;-70
2021/12/16 09:27:07;;;;;;;;;;;8.10;99.90;;;;;;5134694;27;19998;-70
2021/12/16 09:29:33;;;;;;;;;;;8.10;99.90;;;;;;5135387;27;20367;-70
2021/12/16 09:31:59;;;;;;;;;;;8.10;99.90;;;;;;5135024;27;19915;-70
2021/12/16 09:34:24;;;;;;;;;;;8.10;99.90;;;;;;5136081;27;19915;-70
2021/12/16 09:36:50;;;;;;;;;;;8.10;99.90;;;;;;5134540;27;20322;-70
2021/12/16 09:39:17;;;;;;;;;;;8.10;99.90;;;;;;5136094;27;19980;-70
2021/12/16 09:41:46;;;;;;;;;;;8.20;99.90;;;;;;5136178;27;19927;-70
2021/12/16 09:44:12;;;;;;;;;;;8.20;99.90;;;;;;5136096;27;19960;-70
2021/12/16 09:46:39;;;;;;;;;;;8.20;99.90;;;;;;5135736;27;19929;-70
2021/12/16 09:49:05;;;;;;;;;;;8.20;99.90;;;;;;5136387;27;19926;-69
2021/12/16 09:51:32;;;;;;;;;;;8.30;99.90;;;;;;5135011;27;19915;-69
2021/12/16 09:53:59;;;;;;;;;;;8.30;99.90;;;;;;5133042;27;19951;-69
2021/12/16 09:56:26;;;;;;;;;;;8.30;99.90;;;;;;5135280;27;19958;-70
2021/12/16 09:58:52;;;;;;;;;;;8.30;99.90;;;;;;5134714;27;19915;-70
2021/12/16 10:01:19;;;;;;;;;;;8.30;99.90;;;;;;5135966;27;20018;-70
2021/12/16 10:03:45;;;;;;;;;;;8.30;99.90;;;;;;5135456;27;19919;-70
2021/12/16 10:06:11;;;;;;;;;;;8.40;99.90;;;;;;5133739;27;19968;-70
2021/12/16 10:08:37;;;;;;;;;;;8.40;99.90;;;;;;5125893;27;19920;-70
2021/12/16 10:11:04;;;;;;;;;;;8.40;99.90;;;;;;5130730;27;19915;-70
2021/12/16 10:13:43;;;;;;;;;;;8.40;99.90;;;;;;5135787;27;20296;-70
2021/12/16 10:18:35;;;;;;;;;;;8.40;99.90;;;;;;5135330;27;19940;-70
2021/12/16 10:21:03;;;;;;;;;;;8.40;99.90;;;;;;5135547;27;19919;-70
2021/12/16 10:23:31;;;;;;;;;;;8.40;99.90;;;;;;5135317;27;19931;-70
2021/12/16 10:26:03;;;;;;;;;;;8.40;99.90;;;;;;5116280;27;19915;-70
2021/12/16 10:28:30;;;;;;;;;;;8.30;99.90;;;;;;5133853;27;20011;-70
2021/12/16 10:30:58;;;;;;;;;;;8.40;99.90;;;;;;5135953;27;20287;-70
2021/12/16 10:33:29;;;;;;;;;;;8.40;99.90;;;;;;5134397;27;19915;-70
2021/12/16 10:36:18;;;;;;;;;;;8.40;99.90;;;;;;5135155;27;20110;-70
2021/12/16 10:38:52;;;;;;;;;;;8.30;99.90;;;;;;5120295;27;19916;-70
2021/12/16 10:41:21;;;;;;;;;;;8.40;99.90;;;;;;5135136;27;19964;-71
2021/12/16 10:43:50;;;;;;;;;;;8.40;99.90;;;;;;5135083;27;19915;-70
2021/12/16 10:46:23;;;;;;;;;;;8.50;99.90;;;;;;5134628;27;20009;-70
2021/12/16 10:48:51;;;;;;;;;;;8.40;99.90;;;;;;5120214;27;19953;-70
2021/12/16 10:51:20;;;;;;;;;;;8.50;99.90;;;;;;5134722;27;19968;-70
2021/12/16 10:53:50;;;;;;;;;;;8.50;99.90;;;;;;5134315;27;19919;-70
2021/12/16 10:56:16;;;;;;;;;;;8.50;99.90;;;;;;5133536;27;20364;-70
2021/12/16 10:58:51;;;;;;;;;;;8.60;99.90;;;;;;5119002;27;19915;-70
2021/12/16 11:01:30;;;;;;;;;;;8.60;99.90;;;;;;5134677;27;19919;-72
2021/12/16 11:03:56;;;;;;;;;;;8.60;99.90;;;;;;5134399;27;19919;-72
2021/12/16 11:06:33;;;;;;;;;;;8.60;99.90;;;;;;5115840;28;19926;-71
2021/12/16 11:09:17;;;;;;;;;;;8.60;99.90;;;;;;5119974;27;20302;-72
2021/12/16 11:11:43;;;;;;;;;;;8.60;99.90;;;;;;5133417;27;19965;-71
2021/12/16 11:14:08;;;;;;;;;;;8.60;99.90;;;;;;5134661;27;19915;-72
2021/12/16 11:16:35;;;;;;;;;;;8.60;99.90;;;;;;5134567;27;20432;-71
2021/12/16 11:19:00;;;;;;;;;;;8.70;99.90;;;;;;5120615;27;19990;-72
2021/12/16 11:21:39;;;;;;;;;;;8.70;99.90;;;;;;5137736;27;20011;-72
2021/12/16 11:24:24;;;;;;;;;;;8.70;99.90;;;;;;5137516;27;20006;-72
2021/12/16 11:26:49;;;;;;;;;;;8.70;99.90;;;;;;5138318;27;19964;-71
2021/12/16 11:29:17;;;;;;;;;;;8.70;99.90;;;;;;5137457;27;20326;-72
2021/12/16 11:31:44;;;;;;;;;;;8.70;99.90;;;;;;5138820;27;20109;-72
2021/12/16 11:34:10;;;;;;;;;;;8.80;99.90;;;;;;5138710;27;19916;-72
2021/12/16 11:36:38;;;;;;;;;;;8.70;99.90;;;;;;5136999;27;20013;-72
2021/12/16 11:39:08;;;;;;;;;;;8.70;99.90;;;;;;5138620;27;19922;-72
2021/12/16 11:41:38;;;;;;;;;;;8.70;99.90;;;;;;5138280;27;19927;-72
2021/12/16 11:44:06;;;;;;;;;;;8.70;99.90;;;;;;5138673;27;19990;-71
2021/12/16 11:46:32;;;;;;;;;;;8.80;99.90;;;;;;5119852;27;19922;-72
2021/12/16 11:49:00;;;;;;;;;;;8.80;99.90;;;;;;5137275;27;19915;-72
2021/12/16 11:51:30;;;;;;;;;;;8.80;99.90;;;;;;5138369;27;19973;-72
2021/12/16 11:53:58;;;;;;;;;;;8.80;99.90;;;;;;5136608;27;19916;-72
2021/12/16 11:56:35;;;;;;;;;;;8.80;99.90;;;;;;5136954;27;20288;-69
2021/12/16 11:59:01;;;;;;;;;;;8.80;99.90;;;;;;5123588;27;19960;-72
2021/12/16 12:01:26;;;;;;;;;;;8.80;99.90;;;;;;5138093;27;19923;-69
2021/12/16 12:03:59;;;;;;;;;;;8.80;99.90;;;;;;5137000;27;19922;-70
2021/12/16 12:06:26;;;;;;;;;;;8.80;99.90;;;;;;5136843;27;19922;-72
2021/12/16 12:08:53;;;;;;;;;;;8.80;99.90;;;;;;5137436;27;19950;-72
2021/12/16 12:11:30;;;;;;;;;;;8.80;99.90;;;;;;5136791;27;20360;-71
2021/12/16 12:13:57;;;;;;;;;;;8.80;99.90;;;;;;5138120;27;20281;-69
2021/12/16 12:16:31;;;;;;;;;;;8.80;99.90;;;;;;5137337;27;19915;-70
2021/12/16 12:18:58;;;;;;;;;;;8.90;99.90;;;;;;5136637;27;19916;-70
2021/12/16 12:21:33;;;;;;;;;;;8.80;99.90;;;;;;5136624;27;20419;-69
2021/12/16 12:24:01;;;;;;;;;;;8.90;99.90;;;;;;5136316;27;19915;-70
2021/12/16 12:26:27;;;;;;;;;;;8.90;99.90;;;;;;5136122;27;20009;-70
2021/12/16 12:28:55;;;;;;;;;;;8.90;99.90;;;;;;5136419;27;19961;-70
2021/12/16 12:31:23;;;;;;;;;;;8.90;99.90;;;;;;5137513;27;19915;-70
2021/12/16 12:33:49;;;;;;;;;;;8.90;99.90;;;;;;5137603;27;19920;-70
2021/12/16 12:36:15;;;;;;;;;;;8.90;99.90;;;;;;5136994;27;19919;-70
2021/12/16 12:38:41;;;;;;;;;;;8.90;99.90;;;;;;5136035;27;20356;-70
2021/12/16 12:41:08;;;;;;;;;;;8.90;99.90;;;;;;5137481;27;19966;-70
2021/12/16 12:43:33;;;;;;;;;;;8.90;99.90;;;;;;5137190;27;19969;-70
2021/12/16 12:46:01;;;;;;;;;;;8.90;99.90;;;;;;5135331;27;19958;-65
2021/12/16 12:48:26;;;;;;;;;;;9.10;99.90;;;;;;5136669;27;19964;-66
2021/12/16 12:50:55;;;;;;;;;;;9.20;99.90;;;;;;5137494;27;19964;-67
2021/12/16 12:53:26;;;;;;;;;;;9.30;99.90;;;;;;5137479;27;19938;-67
2021/12/16 12:55:56;;;;;;;;;;;9.30;99.90;;;;;;5137130;27;19922;-68
2021/12/16 12:58:24;;;;;;;;;;;9.40;99.90;;;;;;5136532;27;19916;-68
2021/12/16 13:00:51;;;;;;;;;;;9.40;99.90;;;;;;5136975;27;19919;-68
2021/12/16 13:03:21;;;;;;;;;;;9.50;99.90;;;;;;5136881;27;20268;-68
2021/12/16 13:06:07;;;;;;;;;;;9.50;99.90;;;;;;5136791;27;19915;-68
2021/12/16 13:08:37;;;;;;;;;;;9.50;99.90;;;;;;5136851;27;19915;-68
2021/12/16 13:11:05;;;;;;;;;;;9.50;99.90;;;;;;5136803;27;20366;-68
2021/12/16 13:13:36;;;;;;;;;;;9.50;99.90;;;;;;5135211;27;20002;-68
2021/12/16 13:26:50;;;;;;;;;;;9.60;99.90;;;;;;5134801;27;19922;-68
2021/12/16 13:30:04;;;;;;;;;;;9.60;99.90;;;;;;5136614;27;19919;-68
2021/12/16 13:32:15;;;;;;;;;;;9.60;99.90;;;;;;5131952;27;19915;-68
2021/12/16 13:34:50;;;;;;;;;;;9.70;99.90;;;;;;5136438;27;19985;-68
2021/12/16 13:37:22;;;;;;;;;;;9.70;99.90;;;;;;5134845;27;20318;-68
2021/12/16 13:39:49;;;;;;;;;;;9.70;99.90;;;;;;5116835;27;20287;-68
2021/12/16 13:42:15;;;;;;;;;;;9.60;99.90;;;;;;5135934;27;20001;-68
2021/12/16 13:44:43;;;;;;;;;;;9.70;99.90;;;;;;5134833;27;20275;-68
2021/12/16 13:47:24;;;;;;;;;;;9.70;99.90;;;;;;5128069;27;19919;-68
2021/12/16 14:45:09;;;;;;;59.45;22.38;;;9.50;99.90;;;;;;5119090;28;20425;-68
2021/12/16 14:47:14;;;;;;;46.85;20.73;;;9.50;99.90;;;;;;5121261;27;20048;-68
2021/12/16 14:49:46;;;;;;;45.10;18.83;;;9.50;99.90;;;;;;5118582;28;20067;-67
2021/12/16 14:52:22;;;;;;;39.00;17.33;;;9.60;99.90;;;;;;5120065;27;20088;-67
2021/12/16 14:54:54;;;;;;;41.85;16.77;;;9.60;99.90;;;;;;5115461;28;20480;-67
2021/12/16 14:57:26;;;;;;;32.03;16.08;;;9.60;99.90;;;;;;5109323;28;20039;-70
2021/12/16 14:59:52;;;;;;;37.10;16.38;;;9.70;99.90;;;;;;5110959;28;20040;-69
2021/12/16 15:02:21;;;;;;;29.30;14.30;;;9.50;99.90;;;;;;5109530;28;20475;-69
2021/12/16 15:04:46;;;;;;;29.00;14.38;;;9.50;99.90;;;;;;5092656;28;20044;-69
2021/12/16 15:07:13;;;;;;;29.88;15.77;;;9.40;99.90;;;;;;5109180;28;20069;-69
2021/12/16 15:09:41;;;;;;;35.22;16.23;;;9.30;99.90;;;;;;5110042;28;20364;-70
2021/12/16 15:12:42;;;;;;;38.13;16.65;;;9.30;99.90;;;;;;5110759;28;20093;-69
2021/12/16 15:15:31;;;;;;;31.88;15.85;;;9.20;99.90;;;;;;5110305;28;20055;-70
2021/12/16 15:45:22;;;;;;;49.20;20.40;;;9.00;99.90;;;;;;5109853;28;20513;-69
2021/12/16 15:47:50;;;;;;;45.67;18.33;;;9.00;99.90;;;;;;5107823;28;20410;-69
2021/12/16 15:50:22;;;;;;;39.78;17.60;;;9.00;99.90;;;;;;5095247;28;20054;-69
2021/12/16 15:52:51;;;;;;;37.97;18.02;;;9.00;99.90;;;;;;5096230;28;20480;-70
2021/12/16 15:55:34;;;;;;;35.03;17.10;;;9.00;99.90;;;;;;5096421;28;20036;-70
2021/12/16 15:58:13;;;;;;;44.75;18.27;;;9.00;99.90;;;;;;5095926;28;20098;-70
2021/12/16 16:00:42;;;;;;;40.05;19.00;;;9.00;99.90;;;;;;5096632;28;20063;-70
2021/12/16 16:03:10;;;;;;;38.92;17.65;;;8.90;99.90;;;;;;5096127;28;20032;-70
2021/12/16 16:05:42;;;;;;;40.20;16.08;;;9.00;99.90;;;;;;5094402;28;20093;-70
2021/12/16 16:08:11;;;;;;;47.78;19.17;;;9.00;99.90;;;;;;5096013;28;20040;-70
2021/12/16 16:10:38;;;;;;;39.97;18.73;;;8.90;99.90;;;;;;5095999;28;20127;-70
2021/12/16 16:13:11;;;;;;;42.42;18.23;;;8.90;99.90;;;;;;5096195;28;20040;-70
2021/12/16 16:15:38;;;;;;;61.38;22.67;;;8.90;99.90;;;;;;5094430;28;20076;-70
2021/12/16 16:18:13;;;;;;;48.00;19.05;;;9.00;99.90;;;;;;5096261;28;20063;-70
2021/12/16 16:20:44;;;;;;;29.35;14.93;;;8.90;99.90;;;;;;5095641;28;20044;-68
2021/12/16 16:23:12;;;;;;;34.15;16.98;;;9.10;99.90;;;;;;5094521;28;20531;-68
2021/12/16 16:25:39;;;;;;;31.48;17.48;;;9.20;99.90;;;;;;5103888;28;20036;-69
2021/12/16 16:28:08;;;;;;;34.95;16.98;;;9.30;99.90;;;;;;5102984;28;20047;-69
2021/12/16 16:30:35;;;;;;;30.95;16.05;;;9.40;99.90;;;;;;5114007;28;20463;-69
2021/12/16 16:33:11;;;;;;;40.60;18.30;;;9.50;99.90;;;;;;5115986;28;20032;-69
2021/12/16 16:35:51;;;;;;;34.78;15.70;;;9.60;99.90;;;;;;5114741;28;20035;-69
2021/12/16 16:38:26;;;;;;;30.40;15.57;;;9.60;99.90;;;;;;5114065;28;20048;-69
2021/12/16 16:40:55;;;;;;;31.85;15.13;;;9.70;99.90;;;;;;5108481;28;20043;-69
2021/12/16 16:43:31;;;;;;;28.42;13.23;;;9.80;99.90;;;;;;5113890;28;20046;-69
2021/12/16 16:46:25;;;;;;;32.45;15.20;;;9.80;99.90;;;;;;5115399;28;20039;-69
2021/12/16 16:49:15;;;;;;;28.45;14.07;;;9.90;99.90;;;;;;5109292;28;20066;-69
2021/12/16 16:51:47;;;;;;;31.52;15.82;;;9.80;99.90;;;;;;5115353;28;20184;-69
2021/12/16 16:54:40;;;;;;;25.48;13.43;;;9.90;99.90;;;;;;5097272;28;20039;-69
2021/12/16 16:57:14;;;;;;;26.43;15.43;;;9.90;99.90;;;;;;5104775;28;20411;-69
2021/12/16 16:59:44;;;;;;;24.45;12.32;;;9.90;99.90;;;;;;5103752;28;20047;-69
2021/12/16 17:02:29;;;;;;;25.48;13.20;;;9.90;99.90;;;;;;5113859;28;20491;-69
2021/12/16 17:05:07;;;;;;;27.95;13.63;;;9.90;99.90;;;;;;5115430;28;20391;-69
2021/12/16 17:07:56;;;;;;;27.48;13.20;;;9.90;99.90;;;;;;5114976;28;20044;-69
2021/12/16 17:10:24;;;;;;;24.80;12.70;;;9.90;99.90;;;;;;5115443;27;20050;-69
2021/12/16 17:12:57;;;;;;;28.02;13.02;;;9.80;99.90;;;;;;5113745;28;20052;-69
2021/12/16 17:15:37;;;;;;;25.08;14.23;;;9.90;99.90;;;;;;5115231;28;20063;-69
2021/12/16 17:18:04;;;;;;;31.20;15.40;;;9.80;99.90;;;;;;5113966;28;20065;-69
2021/12/16 17:20:30;;;;;;;28.40;15.52;;;9.80;99.90;;;;;;5114966;28;20032;-69
2021/12/16 17:22:58;;;;;;;33.70;17.52;;;9.80;99.90;;;;;;5114939;28;20484;-68
2021/12/16 17:25:24;;;;;;;30.60;15.63;;;9.80;99.90;;;;;;5113912;28;20043;-68
2021/12/16 17:27:58;;;;;;;30.83;16.65;;;9.80;99.90;;;;;;5113265;28;20522;-69
2021/12/16 17:30:25;;;;;;;;;;;9.80;99.90;;;;;;5114190;28;20126;-69
2021/12/16 17:32:54;;;;;;;25.58;14.85;;;9.80;99.90;;;;;;5114896;28;20298;-69
2021/12/16 17:35:25;;;;;;;28.75;14.85;;;9.80;99.90;;;;;;5115149;28;20525;-69
2021/12/16 17:37:53;;;;;;;26.63;14.40;;;9.90;99.90;;;;;;5114100;27;20047;-69
2021/12/16 17:40:37;;;;;;;25.95;14.07;;;9.90;99.90;;;;;;5113644;28;20043;-69
2021/12/16 17:43:07;;;;;;;28.08;14.82;;;9.90;99.90;;;;;;5114731;28;20038;-70
2021/12/16 17:46:00;;;;;;;30.38;15.77;;;9.90;99.90;;;;;;5111221;28;20044;-70
2021/12/16 17:48:31;;;;;;;28.85;15.25;;;9.90;99.90;;;;;;5114338;28;20044;-69
2021/12/16 17:51:06;;;;;;;34.92;17.70;;;9.90;99.90;;;;;;5100242;28;20063;-70
2021/12/16 17:53:35;;;;;;;25.13;14.10;;;9.90;99.90;;;;;;5113280;28;20043;-69
2021/12/16 17:56:06;;;;;;;27.48;14.27;;;9.80;99.90;;;;;;5113248;28;20581;-69
2021/12/16 17:58:35;;;;;;;25.85;14.73;;;9.80;99.90;;;;;;5113958;28;20039;-69
2021/12/16 18:01:06;;;;;;;27.27;14.85;;;9.80;99.90;;;;;;5110666;28;20051;-69
2021/12/16 18:03:54;;;;;;;24.77;14.55;;;9.80;99.90;;;;;;5114213;28;20031;-69
2021/12/16 18:06:24;;;;;;;31.50;16.73;;;9.90;99.90;;;;;;5112211;28;20055;-69
2021/12/16 18:09:10;;;;;;;26.20;15.05;;;9.80;99.90;;;;;;5112786;28;20429;-70
2021/12/16 18:11:44;;;;;;;30.90;17.23;;;9.90;99.90;;;;;;5113790;28;20039;-70